Time;durP1;ratioP1;P1;durP2;ratioP2;P2;SDS_P1;SDS_P2;PMS_P1;PMS_P2;Temp;Humidity;BMP_temperature;BMP_pressure;BME280_temperature;BME280_humidity;BME280_pressure;Samples;Min_cycle;Max_cycle;Signal;HPM_P1;HPM_P2
2021/04/10 00:05:38;;;;;;;7.80;2.97;;;7.50;99.90;;;;;;20853604;28;20041;-80
2021/04/10 00:15:39;;;;;;;7.37;2.90;;;7.10;99.90;;;;;;20855222;28;20056;-81
2021/04/10 00:25:40;;;;;;;6.17;2.57;;;6.70;99.90;;;;;;20867161;28;20042;-79
2021/04/10 00:35:41;;;;;;;5.03;2.30;;;6.30;99.90;;;;;;20839878;28;20033;-79
2021/04/10 00:45:42;;;;;;;5.93;2.20;;;6.30;99.90;;;;;;20846769;28;20041;-80
2021/04/10 00:55:46;;;;;;;4.45;2.10;;;6.20;99.90;;;;;;20861758;28;20049;-80
2021/04/10 01:05:47;;;;;;;8.00;2.65;;;6.10;99.90;;;;;;20861227;28;20041;-81
2021/04/10 01:16:09;;;;;;;6.07;2.60;;;5.70;99.90;;;;;;20860147;28;20044;-80
2021/04/10 01:26:13;;;;;;;6.00;2.73;;;5.60;99.90;;;;;;20860013;28;20172;-80
2021/04/10 01:36:20;;;;;;;10.93;2.53;;;5.70;99.90;;;;;;20843003;28;20041;-80
2021/04/10 01:46:25;;;;;;;14.25;2.63;;;6.00;99.90;;;;;;20874066;28;20103;-80
2021/04/10 01:56:27;;;;;;;3.40;2.30;;;5.80;99.90;;;;;;20842981;28;20105;-81
2021/04/10 02:06:31;;;;;;;5.30;3.45;;;5.90;99.90;;;;;;20843322;28;20049;-80
2021/04/10 02:16:40;;;;;;;5.43;2.70;;;5.90;99.90;;;;;;20842936;28;20037;-81
2021/04/10 02:26:46;;;;;;;12.45;2.90;;;5.70;99.90;;;;;;20840753;28;20411;-81
2021/04/10 02:36:58;;;;;;;12.05;3.15;;;5.40;99.90;;;;;;20840783;28;20037;-81
2021/04/10 02:47:05;;;;;;;6.63;3.03;;;5.60;99.90;;;;;;20841561;28;20046;-81
2021/04/10 02:57:17;;;;;;;7.05;3.58;;;5.30;99.90;;;;;;20839102;28;20076;-80
2021/04/10 03:07:20;;;;;;;7.88;3.63;;;5.10;99.90;;;;;;20853799;28;20046;-80
2021/04/10 03:17:24;;;;;;;9.52;3.47;;;5.20;99.90;;;;;;20866891;22;20053;-76
2021/04/10 03:27:30;;;;;;;5.30;3.22;;;5.30;99.90;;;;;;20844986;28;20542;-76
2021/04/10 03:37:32;;;;;;;12.40;4.47;;;5.10;99.90;;;;;;20824567;28;20046;-76
2021/04/10 03:47:33;;;;;;;;;;;5.40;99.90;;;;;;20841404;28;20164;-76
2021/04/10 03:57:35;;;;;;;5.68;3.35;;;5.20;99.90;;;;;;20824690;28;19952;-76
2021/04/10 04:07:36;;;;;;;8.50;3.30;;;5.20;99.90;;;;;;20829376;28;20124;-76
2021/04/10 04:17:37;;;;;;;8.10;3.37;;;5.00;99.90;;;;;;20838649;28;20472;-75
2021/04/10 04:27:38;;;;;;;8.70;4.73;;;5.30;99.90;;;;;;20839414;28;20076;-75
2021/04/10 04:37:40;;;;;;;8.10;3.43;;;5.70;99.90;;;;;;20838995;28;20091;-75
2021/04/10 04:47:41;;;;;;;9.10;4.45;;;5.80;99.90;;;;;;20836492;28;20033;-75
2021/04/10 04:57:42;;;;;;;7.90;4.37;;;5.80;99.90;;;;;;20837108;28;20030;-75
2021/04/10 05:07:43;;;;;;;6.67;2.80;;;5.90;99.90;;;;;;20836330;28;20143;-75
2021/04/10 05:17:43;;;;;;;9.60;5.07;;;6.00;99.90;;;;;;20834756;28;20048;-75
2021/04/10 05:27:44;;;;;;;17.27;4.53;;;6.20;99.90;;;;;;20835361;28;20076;-75
2021/04/10 05:37:45;;;;;;;8.90;4.07;;;6.30;99.90;;;;;;20837540;28;20030;-77
2021/04/10 05:47:46;;;;;;;10.33;4.70;;;6.40;99.90;;;;;;20833330;28;20503;-77
2021/04/10 05:57:47;;;;;;;20.57;4.60;;;6.50;99.90;;;;;;20832515;28;20044;-77
2021/04/10 06:07:48;;;;;;;10.93;3.83;;;6.90;99.90;;;;;;20830582;28;20037;-77
2021/04/10 06:17:50;;;;;;;;;;;7.20;99.90;;;;;;20829896;28;20041;-77
2021/04/10 06:27:51;;;;;;;11.60;3.35;;;7.50;99.90;;;;;;20828962;28;19913;-77
2021/04/10 06:37:52;;;;;;;6.50;3.20;;;8.00;99.90;;;;;;20831167;28;20037;-76
2021/04/10 06:47:54;;;;;;;11.33;3.53;;;8.40;99.90;;;;;;20834116;28;20039;-77
2021/04/10 06:58:04;;;;;;;8.15;3.55;;;8.30;99.90;;;;;;20835467;28;20208;-77
2021/04/10 07:08:07;;;;;;;7.75;3.97;;;8.50;99.90;;;;;;20859638;28;20061;-78
2021/04/10 07:18:08;;;;;;;7.30;3.20;;;8.80;99.90;;;;;;20844706;28;20079;-79
2021/04/10 07:28:30;;;;;;;7.10;2.40;;;9.10;99.90;;;;;;20840265;28;20128;-78
2021/04/10 07:38:36;;;;;;;6.70;2.83;;;9.50;99.90;;;;;;20835775;28;20033;-78
2021/04/10 07:48:38;;;;;;;6.22;1.70;;;9.90;99.90;;;;;;20849690;28;20065;-79
2021/04/10 07:58:39;;;;;;;2.60;1.20;;;10.40;99.90;;;;;;20850851;28;20057;-79
2021/04/10 08:09:06;;;;;;;1.83;1.50;;;11.20;99.90;;;;;;20847822;28;20034;-78
2021/04/10 08:19:07;;;;;;;3.20;1.45;;;11.60;99.90;;;;;;20844647;28;20069;-79
2021/04/10 08:29:08;;;;;;;2.97;1.20;;;12.70;99.90;;;;;;20838776;28;20404;-78
2021/04/10 08:39:13;;;;;;;5.07;1.60;;;13.10;99.90;;;;;;20843333;28;20044;-79
2021/04/10 08:49:17;;;;;;;5.07;1.52;;;13.20;99.90;;;;;;20838242;28;20042;-77
2021/04/10 08:59:20;;;;;;;3.63;1.55;;;13.70;99.90;;;;;;20851434;28;20095;-78
2021/04/10 09:09:25;;;;;;;3.40;1.50;;;14.00;99.90;;;;;;20853122;28;20117;-77
2021/04/10 09:19:26;;;;;;;3.83;1.40;;;14.20;99.90;;;;;;20861049;22;20507;-79
2021/04/10 09:29:41;;;;;;;3.88;1.38;;;14.70;99.90;;;;;;20762327;28;20050;-80
2021/04/10 09:39:52;;;;;;;3.08;1.50;;;15.10;99.90;;;;;;20886679;28;20041;-79
2021/04/10 09:49:53;;;;;;;2.47;1.15;;;15.90;99.90;;;;;;20848514;28;20411;-78
2021/04/10 09:59:54;;;;;;;4.05;0.93;;;16.60;99.90;;;;;;20822995;28;20042;-79
2021/04/10 10:10:08;;;;;;;5.07;1.02;;;15.60;99.90;;;;;;20805079;28;20634;-78
2021/04/10 10:20:14;;;;;;;3.15;0.98;;;15.40;99.90;;;;;;20805050;28;20049;-77
2021/04/10 10:30:19;;;;;;;2.08;1.27;;;15.60;99.90;;;;;;20830681;28;20116;-78
2021/04/10 10:40:24;;;;;;;2.90;1.45;;;15.60;99.90;;;;;;20822180;28;20049;-77
2021/04/10 10:50:28;;;;;;;4.47;1.30;;;16.30;99.90;;;;;;20815969;28;20778;-79
2021/04/10 11:00:30;;;;;;;6.50;1.52;;;16.60;99.90;;;;;;20816699;28;20041;-79
2021/04/10 11:10:32;;;;;;;2.70;1.00;;;15.80;97.70;;;;;;20834556;28;20042;-81
2021/04/10 11:20:34;;;;;;;2.05;1.10;;;16.60;99.90;;;;;;20824312;28;20049;-80
2021/04/10 11:30:35;;;;;;;4.47;1.25;;;16.90;97.80;;;;;;20894442;28;20045;-79
2021/04/10 11:40:36;;;;;;;6.05;1.25;;;16.70;97.40;;;;;;20843100;28;20056;-79
2021/04/10 11:51:00;;;;;;;5.28;1.50;;;17.00;95.30;;;;;;20841964;28;20046;-79
2021/04/10 12:01:05;;;;;;;2.40;1.08;;;17.30;98.00;;;;;;20833069;28;20046;-80
2021/04/10 12:11:06;;;;;;;3.85;1.52;;;17.60;97.50;;;;;;20808428;28;20072;-79
2021/04/10 12:21:07;;;;;;;4.85;1.48;;;17.30;97.20;;;;;;20823024;28;20037;-79
2021/04/10 12:31:10;;;;;;;3.60;1.20;;;17.80;95.90;;;;;;20915728;28;20037;-80
2021/04/10 12:41:11;;;;;;;7.53;1.35;;;18.30;93.70;;;;;;20847622;28;20038;-79
2021/04/10 12:51:12;;;;;;;4.90;1.20;;;17.60;94.20;;;;;;20825594;28;20061;-79
2021/04/10 13:01:14;;;;;;;5.83;1.43;;;17.90;94.20;;;;;;20848514;28;20042;-78
2021/04/10 13:11:15;;;;;;;2.38;1.00;;;17.80;92.90;;;;;;20843310;28;20045;-80
2021/04/10 13:21:16;;;;;;;2.10;1.23;;;18.30;92.10;;;;;;20844231;28;20049;-80
2021/04/10 13:31:18;;;;;;;1.73;0.82;;;17.80;92.20;;;;;;20838947;28;20050;-80
2021/04/10 13:41:20;;;;;;;7.78;1.38;;;18.60;93.10;;;;;;20840706;28;20096;-79
2021/04/10 13:51:20;;;;;;;2.20;0.80;;;17.80;93.40;;;;;;20838794;28;20682;-79
2021/04/10 14:01:21;;;;;;;3.33;1.00;;;18.40;94.10;;;;;;20853810;28;20041;-78
2021/04/10 14:11:23;;;;;;;2.80;1.13;;;18.00;91.40;;;;;;20823493;28;20448;-77
2021/04/10 14:21:24;;;;;;;3.20;0.98;;;17.90;94.10;;;;;;20838462;28;20045;-78
2021/04/10 14:31:26;;;;;;;2.38;1.00;;;17.80;91.70;;;;;;21475342;22;20100;-76
2021/04/10 14:41:26;;;;;;;2.43;1.10;;;17.10;91.90;;;;;;20875418;28;20550;-74
2021/04/10 14:51:27;;;;;;;1.10;0.70;;;16.80;91.50;;;;;;20977435;22;20091;-79
2021/04/10 15:01:28;;;;;;;3.05;1.58;;;16.70;91.20;;;;;;20950457;28;20083;-78
2021/04/10 15:12:00;;;;;;;9.73;1.20;;;16.50;91.90;;;;;;20882788;28;20112;-79
2021/04/10 15:22:01;;;;;;;1.92;1.17;;;16.50;91.30;;;;;;20966163;28;20115;-76
2021/04/10 15:32:02;;;;;;;7.07;1.60;;;16.40;90.90;;;;;;20958151;28;20138;-76
2021/04/10 15:42:04;;;;;;;1.53;0.77;;;16.40;92.20;;;;;;20907730;28;20110;-75
2021/04/10 15:52:06;;;;;;;6.13;2.17;;;16.60;91.80;;;;;;20882315;28;20049;-75
2021/04/10 16:02:07;;;;;;;16.75;5.05;;;16.50;92.00;;;;;;20895145;28;20119;-77
2021/04/10 16:12:08;;;;;;;5.45;1.23;;;16.50;93.00;;;;;;20900433;28;20029;-77
2021/04/10 16:22:09;;;;;;;2.80;1.80;;;16.30;91.90;;;;;;20920380;28;20041;-76
2021/04/10 16:32:10;;;;;;;5.43;1.45;;;16.20;91.90;;;;;;20983047;28;20036;-76
2021/04/10 16:42:11;;;;;;;7.18;1.30;;;16.10;92.40;;;;;;20993266;28;20052;-77
2021/04/10 16:52:12;;;;;;;3.95;1.40;;;16.00;92.30;;;;;;20981739;28;20506;-76
2021/04/10 17:02:14;;;;;;;3.00;1.73;;;15.80;92.00;;;;;;20984377;28;20044;-76
2021/04/10 17:12:15;;;;;;;;;;;15.80;92.60;;;;;;20935517;28;20045;-76
2021/04/10 17:22:16;;;;;;;5.72;1.55;;;15.60;92.50;;;;;;20898485;28;20290;-76
2021/04/10 17:32:18;;;;;;;4.05;1.00;;;15.50;93.20;;;;;;20896536;28;20407;-75
2021/04/10 17:42:19;;;;;;;2.28;0.90;;;15.30;93.30;;;;;;20896391;28;20052;-75
2021/04/10 17:52:20;;;;;;;1.75;0.93;;;15.20;93.00;;;;;;20895445;28;20099;-76
2021/04/10 18:02:21;;;;;;;3.05;2.05;;;15.20;93.50;;;;;;20894720;28;20760;-76
2021/04/10 18:12:21;;;;;;;2.50;0.95;;;15.00;93.90;;;;;;20847146;28;20034;-76
2021/04/10 18:22:22;;;;;;;9.27;3.13;;;14.90;94.30;;;;;;20811510;28;20040;-77
2021/04/10 18:32:23;;;;;;;15.48;5.72;;;14.50;96.90;;;;;;20808710;28;20072;-77
2021/04/10 18:42:24;;;;;;;2.13;0.63;;;14.40;97.00;;;;;;20810600;28;20049;-77
2021/04/10 18:52:25;;;;;;;5.00;0.80;;;14.40;98.70;;;;;;20814087;28;20041;-76
2021/04/10 19:02:26;;;;;;;1.23;1.02;;;14.00;99.60;;;;;;20811960;28;20044;-77
2021/04/10 19:12:27;;;;;;;3.42;0.80;;;14.10;98.50;;;;;;20815270;28;20086;-77
2021/04/10 19:22:28;;;;;;;3.20;1.10;;;14.30;97.50;;;;;;20810146;28;20049;-76
2021/04/10 19:32:28;;;;;;;1.73;0.90;;;14.30;97.50;;;;;;20789609;28;20067;-76
2021/04/10 19:42:31;;;;;;;2.40;1.00;;;14.00;99.90;;;;;;20805194;28;20163;-77
2021/04/10 19:52:32;;;;;;;1.55;0.73;;;13.90;99.70;;;;;;20805662;28;20080;-77
2021/04/10 20:02:33;;;;;;;3.17;1.08;;;14.00;99.60;;;;;;20805316;28;20069;-76
2021/04/10 20:12:33;;;;;;;1.80;0.80;;;14.00;99.40;;;;;;20851079;28;20047;-77
2021/04/10 20:22:34;;;;;;;19.38;8.20;;;14.00;99.30;;;;;;20884610;28;20048;-77
2021/04/10 20:32:35;;;;;;;2.83;1.17;;;13.80;99.90;;;;;;20884254;28;20140;-77
2021/04/10 20:42:36;;;;;;;3.25;1.65;;;13.70;99.90;;;;;;20885215;28;20041;-77
2021/04/10 20:52:37;;;;;;;1.85;1.00;;;13.60;99.90;;;;;;20973339;22;20395;-78
2021/04/10 21:02:38;;;;;;;1.98;1.08;;;13.60;99.90;;;;;;21005589;28;20045;-79
2021/04/10 21:12:40;;;;;;;3.47;0.90;;;13.60;99.90;;;;;;21000309;28;20048;-79
2021/04/10 21:22:41;;;;;;;1.92;1.38;;;13.60;99.90;;;;;;21002800;28;20421;-79
2021/04/10 21:32:44;;;;;;;2.03;0.77;;;13.40;99.90;;;;;;21001461;28;20048;-79
2021/04/10 21:42:45;;;;;;;4.25;0.98;;;12.90;99.90;;;;;;20999697;28;20152;-79
2021/04/10 21:52:47;;;;;;;3.72;1.25;;;13.00;99.90;;;;;;20981885;28;20075;-79
2021/04/10 22:02:47;;;;;;;4.35;1.10;;;13.10;99.90;;;;;;20981708;28;20093;-79
2021/04/10 22:12:48;;;;;;;1.02;0.90;;;12.70;99.90;;;;;;20947614;28;20041;-78
2021/04/10 22:22:50;;;;;;;1.45;0.82;;;12.30;99.90;;;;;;20907195;28;20063;-78
2021/04/10 22:32:52;;;;;;;4.03;1.10;;;11.90;99.90;;;;;;20887968;28;20082;-78
2021/04/10 22:42:53;;;;;;;2.55;1.27;;;11.40;99.90;;;;;;20899180;28;20052;-79
2021/04/10 22:52:55;;;;;;;1.60;1.10;;;11.40;99.90;;;;;;20907886;28;20017;-80
2021/04/10 23:02:58;;;;;;;3.33;1.30;;;11.30;99.90;;;;;;20949740;28;20557;-79
2021/04/10 23:13:00;;;;;;;3.83;1.05;;;10.90;99.90;;;;;;20923259;28;20052;-79
2021/04/10 23:23:02;;;;;;;1.73;1.08;;;10.50;99.90;;;;;;21079429;28;20463;-78
2021/04/10 23:33:12;;;;;;;1.60;1.13;;;10.50;99.90;;;;;;21044053;28;20509;-79
2021/04/10 23:43:13;;;;;;;3.83;1.27;;;10.50;99.90;;;;;;21013001;28;20887;-79
2021/04/10 23:53:16;;;;;;;5.07;1.37;;;10.10;99.90;;;;;;20966270;28;20052;-78
